Time;durP1;ratioP1;P1;durP2;ratioP2;P2;SDS_P1;SDS_P2;PMS_P1;PMS_P2;Temp;Humidity;BMP_temperature;BMP_pressure;BME280_temperature;BME280_humidity;BME280_pressure;Samples;Min_cycle;Max_cycle;Signal;HPM_P1;HPM_P2
2022/06/21 00:01:40;;;;;;;5.70;3.25;;;11.10;99.90;;;;;;5044382;28;20055;-76
2022/06/21 00:04:10;;;;;;;10.07;3.90;;;11.00;99.90;;;;;;5057688;28;20048;-76
2022/06/21 00:06:36;;;;;;;10.98;3.50;;;11.00;99.90;;;;;;5061114;28;20515;-76
2022/06/21 00:09:02;;;;;;;9.43;4.00;;;11.00;99.90;;;;;;5043015;28;20044;-75
2022/06/21 00:11:32;;;;;;;8.10;3.03;;;11.00;99.90;;;;;;5054308;28;20183;-76
2022/06/21 00:13:59;;;;;;;8.00;3.47;;;11.00;99.90;;;;;;5029917;28;20040;-76
2022/06/21 00:16:28;;;;;;;9.35;3.50;;;11.00;99.90;;;;;;5034531;28;20093;-76
2022/06/21 00:18:55;;;;;;;8.00;3.17;;;11.00;99.90;;;;;;5043132;28;20146;-76
2022/06/21 00:21:25;;;;;;;9.05;3.38;;;11.00;99.90;;;;;;5052096;28;20059;-76
2022/06/21 00:23:54;;;;;;;8.82;3.30;;;11.00;99.90;;;;;;5028689;28;20051;-76
2022/06/21 00:26:22;;;;;;;6.82;3.08;;;10.90;99.90;;;;;;5039129;28;20040;-77
2022/06/21 00:28:49;;;;;;;6.93;2.90;;;10.90;99.90;;;;;;5036134;28;20109;-76
2022/06/21 00:31:25;;;;;;;6.53;2.95;;;10.60;99.90;;;;;;5095182;27;20089;-76
2022/06/21 00:33:52;;;;;;;9.05;3.30;;;10.40;99.90;;;;;;5072746;28;20044;-76
2022/06/21 00:36:31;;;;;;;7.57;3.65;;;10.20;99.90;;;;;;5035217;28;20109;-76
2022/06/21 00:38:59;;;;;;;8.38;2.55;;;10.20;99.90;;;;;;5060508;28;20436;-75
2022/06/21 00:41:47;;;;;;;9.40;3.47;;;10.00;99.90;;;;;;5046496;28;20048;-76
2022/06/21 00:44:38;;;;;;;10.52;4.13;;;10.00;99.90;;;;;;5053472;28;20051;-76
2022/06/21 00:47:12;;;;;;;7.57;3.43;;;9.90;99.90;;;;;;5041260;28;20063;-76
2022/06/21 00:50:15;;;;;;;8.30;3.90;;;9.90;99.90;;;;;;5060331;28;20047;-76
2022/06/21 00:53:01;;;;;;;7.05;3.92;;;9.90;99.90;;;;;;5045753;28;20040;-76
2022/06/21 00:55:36;;;;;;;9.73;3.90;;;9.80;99.90;;;;;;5044726;28;20052;-76
2022/06/21 00:58:02;;;;;;;10.27;4.40;;;9.80;99.90;;;;;;5053431;28;20051;-77
2022/06/21 01:00:39;;;;;;;7.10;3.45;;;9.70;99.90;;;;;;5027527;28;20089;-75
2022/06/21 01:03:17;;;;;;;6.15;3.40;;;9.70;99.90;;;;;;5078331;28;20123;-77
2022/06/21 01:05:47;;;;;;;8.95;4.03;;;9.70;99.90;;;;;;5059940;28;20087;-75
2022/06/21 01:08:23;;;;;;;5.82;3.75;;;9.70;99.90;;;;;;5030669;28;20063;-75
2022/06/21 01:10:56;;;;;;;7.88;3.92;;;9.70;99.90;;;;;;5029630;28;20118;-76
2022/06/21 01:13:26;;;;;;;8.90;3.92;;;9.70;99.90;;;;;;5028619;28;20040;-75
2022/06/21 01:15:55;;;;;;;7.82;3.65;;;9.70;99.90;;;;;;5044903;28;20044;-76
2022/06/21 01:18:22;;;;;;;7.90;3.83;;;9.60;99.90;;;;;;5071567;28;20056;-75
2022/06/21 01:20:52;;;;;;;6.63;3.63;;;9.70;99.90;;;;;;5031143;28;20075;-76
2022/06/21 01:23:48;;;;;;;11.60;4.30;;;9.70;99.90;;;;;;5045214;28;20048;-75
2022/06/21 01:26:32;;;;;;;8.18;3.90;;;9.70;99.90;;;;;;5052387;28;20052;-75
2022/06/21 01:29:00;;;;;;;11.43;4.78;;;9.70;99.90;;;;;;5079720;28;20360;-75
2022/06/21 01:31:27;;;;;;;6.45;3.90;;;9.60;99.90;;;;;;5057049;28;20382;-76
2022/06/21 01:33:53;;;;;;;8.98;4.35;;;9.60;99.90;;;;;;5026170;28;20052;-75
2022/06/21 01:36:29;;;;;;;9.02;3.53;;;9.50;99.90;;;;;;5062098;28;20521;-75
2022/06/21 01:39:03;;;;;;;8.10;3.42;;;9.40;99.90;;;;;;5062681;28;20471;-75
2022/06/21 01:41:54;;;;;;;4.50;3.00;;;9.40;99.90;;;;;;5077492;28;20308;-75
2022/06/21 01:44:29;;;;;;;7.55;4.32;;;9.30;99.90;;;;;;5045162;28;20159;-75
2022/06/21 01:46:57;;;;;;;5.47;4.20;;;9.20;99.90;;;;;;5021759;28;20785;-75
2022/06/21 01:49:28;;;;;;;6.57;4.55;;;9.00;99.90;;;;;;5061680;28;20043;-75
2022/06/21 01:52:02;;;;;;;7.35;4.80;;;8.90;99.90;;;;;;5019930;28;20040;-75
2022/06/21 01:54:35;;;;;;;7.13;3.80;;;8.90;99.90;;;;;;5049768;28;20048;-75
2022/06/21 01:57:00;;;;;;;;;;;8.80;99.90;;;;;;5056211;28;20040;-75
2022/06/21 01:59:31;;;;;;;6.88;3.88;;;8.80;99.90;;;;;;5074705;28;19935;-75
2022/06/21 02:02:10;;;;;;;6.80;3.85;;;8.80;99.90;;;;;;5045584;28;20051;-75
2022/06/21 02:04:52;;;;;;;6.22;4.57;;;8.80;99.90;;;;;;5093055;27;20156;-76
2022/06/21 02:07:24;;;;;;;7.72;4.20;;;8.70;99.90;;;;;;5069292;28;20535;-75
2022/06/21 02:10:19;;;;;;;7.05;4.60;;;8.70;99.90;;;;;;5005491;28;20425;-75
2022/06/21 02:13:10;;;;;;;9.02;5.22;;;8.70;99.90;;;;;;5059829;28;20060;-75
2022/06/21 02:15:46;;;;;;;7.03;4.63;;;8.70;99.90;;;;;;5057583;28;20052;-76
2022/06/21 02:18:15;;;;;;;5.78;4.13;;;8.70;99.90;;;;;;5027276;28;20664;-76
2022/06/21 02:21:03;;;;;;;6.97;5.13;;;8.70;99.90;;;;;;5054571;28;20044;-76
2022/06/21 02:23:29;;;;;;;7.07;4.43;;;8.80;99.90;;;;;;5024509;28;20059;-76
2022/06/21 02:25:57;;;;;;;13.55;5.78;;;8.70;99.90;;;;;;5034091;28;20076;-76
2022/06/21 02:28:25;;;;;;;15.07;5.95;;;8.80;99.90;;;;;;5027687;28;20575;-76
2022/06/21 02:30:53;;;;;;;29.70;6.07;;;8.70;99.90;;;;;;5032373;28;20052;-76
2022/06/21 02:33:23;;;;;;;6.53;4.88;;;8.80;99.90;;;;;;5046412;28;20468;-76
2022/06/21 02:35:53;;;;;;;5.75;3.67;;;8.80;99.90;;;;;;5045093;28;20048;-76
2022/06/21 02:38:42;;;;;;;4.93;3.80;;;8.70;99.90;;;;;;5059331;28;20497;-76
2022/06/21 02:41:11;;;;;;;5.03;4.53;;;8.80;99.90;;;;;;5057785;28;20453;-76
2022/06/21 02:43:39;;;;;;;6.00;3.90;;;8.80;99.90;;;;;;5049765;28;20537;-76
2022/06/21 02:46:19;;;;;;;4.85;3.63;;;8.80;99.90;;;;;;5030523;28;20058;-76
2022/06/21 02:48:54;;;;;;;3.85;3.40;;;8.90;99.90;;;;;;5048301;28;20067;-76
2022/06/21 02:51:26;;;;;;;4.32;3.35;;;8.90;99.90;;;;;;5064211;28;20048;-76
2022/06/21 02:54:24;;;;;;;3.88;3.50;;;8.90;99.90;;;;;;5053547;28;20053;-76
2022/06/21 02:57:09;;;;;;;2.92;2.60;;;8.80;99.90;;;;;;5077306;28;20079;-76
2022/06/21 02:59:40;;;;;;;5.25;3.30;;;8.80;99.90;;;;;;5101418;28;20048;-76
2022/06/21 03:02:11;;;;;;;4.10;3.70;;;8.80;99.90;;;;;;5037475;28;20539;-76
2022/06/21 03:04:43;;;;;;;4.80;3.95;;;8.70;99.90;;;;;;5057728;28;20048;-76
2022/06/21 03:07:18;;;;;;;7.50;5.43;;;8.60;99.90;;;;;;5060609;28;20048;-75
2022/06/21 03:09:44;;;;;;;7.40;5.65;;;8.50;99.90;;;;;;5042242;28;20059;-76
2022/06/21 03:12:19;;;;;;;7.07;5.57;;;8.40;99.90;;;;;;5027461;28;20045;-75
2022/06/21 03:14:46;;;;;;;4.97;4.47;;;8.40;99.90;;;;;;5056537;28;20106;-76
2022/06/21 03:17:18;;;;;;;4.60;3.88;;;8.30;99.90;;;;;;5023575;28;20131;-75
2022/06/21 03:19:50;;;;;;;4.88;4.18;;;8.30;99.90;;;;;;5055409;28;20606;-75
2022/06/21 03:22:18;;;;;;;5.07;4.00;;;8.20;99.90;;;;;;5044501;28;20053;-75
2022/06/21 03:24:46;;;;;;;5.55;4.50;;;8.20;99.90;;;;;;5038983;28;20045;-75
2022/06/21 03:27:42;;;;;;;17.48;4.45;;;8.20;99.90;;;;;;5046198;28;20044;-75
2022/06/21 03:30:08;;;;;;;5.38;4.10;;;8.20;99.90;;;;;;5049664;28;20544;-75
2022/06/21 03:32:37;;;;;;;6.75;4.97;;;8.10;99.90;;;;;;5060223;28;20044;-75
2022/06/21 03:35:05;;;;;;;9.63;5.20;;;8.20;99.90;;;;;;5064966;28;20399;-75
2022/06/21 03:37:33;;;;;;;5.78;5.18;;;8.20;99.90;;;;;;5046161;28;20579;-75
2022/06/21 03:42:47;;;;;;;6.00;5.10;;;8.30;99.90;;;;;;5030880;28;20048;-75
2022/06/21 03:45:24;;;;;;;13.85;6.18;;;8.30;99.90;;;;;;5040956;28;20156;-75
2022/06/21 03:48:15;;;;;;;18.55;6.95;;;8.30;99.90;;;;;;5039888;28;20040;-75
2022/06/21 03:50:56;;;;;;;7.85;5.88;;;8.30;99.90;;;;;;5080411;28;20036;-75
2022/06/21 03:53:38;;;;;;;13.70;6.13;;;8.30;99.90;;;;;;5040352;28;20400;-75
2022/06/21 03:56:41;;;;;;;6.60;5.40;;;8.30;99.90;;;;;;5081277;28;20052;-75
2022/06/21 03:59:30;;;;;;;5.60;4.50;;;8.20;99.90;;;;;;5058964;28;20044;-75
2022/06/21 04:02:06;;;;;;;4.80;4.30;;;8.30;99.90;;;;;;5064163;28;20726;-75
2022/06/21 04:04:46;;;;;;;5.93;4.60;;;8.30;99.90;;;;;;5057895;28;20039;-75
2022/06/21 04:07:29;;;;;;;5.60;4.82;;;8.40;99.90;;;;;;5045254;28;20079;-75
2022/06/21 04:10:01;;;;;;;5.70;5.20;;;8.40;99.90;;;;;;5078195;28;20109;-75
2022/06/21 04:12:30;;;;;;;5.78;5.18;;;8.40;99.90;;;;;;5061274;28;20059;-75
2022/06/21 04:15:02;;;;;;;5.22;4.72;;;8.50;99.90;;;;;;5046282;28;20052;-75
2022/06/21 04:17:33;;;;;;;;;;;8.60;99.90;;;;;;5064886;28;20049;-75
2022/06/21 04:20:08;;;;;;;6.55;5.35;;;8.70;99.90;;;;;;5041550;28;19932;-75
2022/06/21 04:22:49;;;;;;;7.20;5.45;;;8.70;99.90;;;;;;5030097;28;20058;-75
2022/06/21 04:25:33;;;;;;;7.82;5.50;;;8.80;99.90;;;;;;5040475;28;20047;-75
2022/06/21 04:28:08;;;;;;;9.23;5.82;;;8.80;99.90;;;;;;5038122;28;20134;-75
2022/06/21 04:30:48;;;;;;;8.18;5.15;;;8.90;99.90;;;;;;5059437;28;20122;-76
2022/06/21 04:33:20;;;;;;;7.78;5.60;;;8.90;99.90;;;;;;5058084;28;20043;-75
2022/06/21 04:36:02;;;;;;;7.93;5.28;;;8.90;99.90;;;;;;5057550;28;20047;-76
2022/06/21 04:39:14;;;;;;;6.15;4.45;;;9.00;99.90;;;;;;5026304;28;20048;-75
2022/06/21 04:41:47;;;;;;;7.57;5.10;;;9.00;99.90;;;;;;5007539;28;20052;-75
2022/06/21 04:44:22;;;;;;;6.60;4.68;;;9.10;99.90;;;;;;5045647;28;20135;-76
2022/06/21 04:46:58;;;;;;;6.15;4.80;;;9.10;99.90;;;;;;5041288;28;20052;-75
2022/06/21 04:49:37;;;;;;;6.55;5.07;;;9.20;99.90;;;;;;5063978;28;20457;-75
2022/06/21 04:52:39;;;;;;;6.03;4.22;;;9.30;99.90;;;;;;5061164;28;20055;-75
2022/06/21 04:55:14;;;;;;;7.38;5.70;;;9.40;99.90;;;;;;5054740;28;20521;-76
2022/06/21 04:57:40;;;;;;;6.10;4.80;;;9.60;99.90;;;;;;5056648;28;20040;-75
2022/06/21 05:00:18;;;;;;;6.93;4.80;;;9.60;99.90;;;;;;5053302;28;20082;-75
2022/06/21 05:02:51;;;;;;;6.63;5.03;;;9.80;99.90;;;;;;5050867;28;20132;-75
2022/06/21 05:05:18;;;;;;;9.65;5.45;;;9.90;99.90;;;;;;5060905;28;20048;-78
2022/06/21 05:07:52;;;;;;;8.45;5.60;;;10.00;99.90;;;;;;5070658;28;20475;-77
2022/06/21 05:10:27;;;;;;;8.82;5.32;;;10.20;99.90;;;;;;5066713;28;20123;-77
2022/06/21 05:12:55;;;;;;;9.23;5.38;;;10.40;99.90;;;;;;5046834;28;20090;-77
2022/06/21 05:15:33;;;;;;;8.18;5.60;;;10.50;99.90;;;;;;5070832;28;20053;-77
2022/06/21 05:18:07;;;;;;;8.55;5.43;;;10.60;99.90;;;;;;5073733;28;20056;-77
2022/06/21 05:20:37;;;;;;;10.82;5.70;;;10.80;99.90;;;;;;5062678;28;20559;-77
2022/06/21 05:23:05;;;;;;;10.43;5.93;;;11.00;99.90;;;;;;5060870;28;20167;-76
2022/06/21 05:25:41;;;;;;;8.27;6.22;;;11.00;99.90;;;;;;5063022;28;20036;-77
2022/06/21 05:28:26;;;;;;;6.20;5.60;;;11.20;99.90;;;;;;5045860;28;20653;-76
2022/06/21 05:30:57;;;;;;;10.27;8.32;;;11.30;99.90;;;;;;5084740;28;20123;-78
2022/06/21 05:33:31;;;;;;;10.63;7.95;;;11.40;99.90;;;;;;5058229;28;20037;-78
2022/06/21 05:35:57;;;;;;;18.58;15.43;;;11.50;99.90;;;;;;5040570;28;20052;-78
2022/06/21 05:38:27;;;;;;;13.05;10.02;;;12.00;99.90;;;;;;5014778;28;20067;-78
2022/06/21 05:41:09;;;;;;;10.27;7.95;;;12.20;99.90;;;;;;5044697;28;20040;-78
2022/06/21 05:43:37;;;;;;;8.02;5.65;;;12.30;99.90;;;;;;5056754;28;20109;-78
2022/06/21 05:46:15;;;;;;;9.65;6.45;;;12.40;99.90;;;;;;5050654;28;20047;-78
2022/06/21 05:48:42;;;;;;;8.68;5.05;;;12.50;99.90;;;;;;5046290;28;20123;-79
2022/06/21 05:51:26;;;;;;;9.02;5.50;;;12.50;99.90;;;;;;5044359;28;20044;-79
2022/06/21 05:54:16;;;;;;;9.55;5.53;;;12.50;99.90;;;;;;5060710;28;20047;-79
2022/06/21 05:56:42;;;;;;;8.45;4.97;;;12.90;99.90;;;;;;5057784;28;20059;-83
2022/06/21 05:59:14;;;;;;;83.10;71.32;;;13.60;99.90;;;;;;5059770;28;20119;-79
2022/06/21 06:01:54;;;;;;;13.65;10.20;;;13.90;99.90;;;;;;5060666;28;20041;-77
2022/06/21 06:04:36;;;;;;;11.32;4.90;;;14.50;99.90;;;;;;5048045;28;20071;-78
2022/06/21 06:07:04;;;;;;;18.08;13.52;;;15.00;99.90;;;;;;5044090;28;20200;-78
2022/06/21 06:09:42;;;;;;;11.55;6.72;;;15.20;99.90;;;;;;5041905;28;20448;-77
2022/06/21 06:12:22;;;;;;;10.85;8.52;;;15.60;99.90;;;;;;5033489;28;20067;-77
2022/06/21 06:14:56;;;;;;;10.50;5.95;;;16.00;99.90;;;;;;5042779;28;20102;-77
2022/06/21 06:17:30;;;;;;;5.30;2.95;;;16.30;99.90;;;;;;5049669;28;20050;-78
2022/06/21 06:20:18;;;;;;;6.35;3.70;;;16.80;99.90;;;;;;5051405;28;20408;-78
2022/06/21 06:23:03;;;;;;;10.27;5.07;;;17.20;99.90;;;;;;5052410;28;20468;-79
2022/06/21 06:25:34;;;;;;;5.22;2.70;;;17.40;99.90;;;;;;5061572;28;20123;-78
2022/06/21 06:28:15;;;;;;;7.55;2.95;;;17.70;99.90;;;;;;5039874;28;20050;-78
2022/06/21 06:30:51;;;;;;;6.47;2.58;;;17.80;99.90;;;;;;5044150;28;20514;-79
2022/06/21 06:33:29;;;;;;;6.18;2.38;;;18.10;99.90;;;;;;5045695;28;20147;-79
2022/06/21 06:36:00;;;;;;;6.30;2.42;;;18.10;99.90;;;;;;5058706;28;20621;-80
2022/06/21 06:38:30;;;;;;;6.70;2.20;;;18.40;99.90;;;;;;5043205;28;20129;-80
2022/06/21 06:41:39;;;;;;;6.32;2.92;;;18.60;99.90;;;;;;5029852;28;20130;-80
2022/06/21 06:44:11;;;;;;;5.35;1.38;;;18.70;99.90;;;;;;5064030;28;20079;-79
2022/06/21 06:46:43;;;;;;;37.70;33.65;;;19.00;99.90;;;;;;5052268;28;20136;-80
2022/06/21 06:49:17;;;;;;;6.25;2.20;;;19.10;99.90;;;;;;5072230;28;20083;-80
2022/06/21 06:52:04;;;;;;;4.40;1.38;;;19.30;99.90;;;;;;5040902;28;20613;-79
2022/06/21 06:55:14;;;;;;;8.55;3.28;;;19.10;99.90;;;;;;5037314;28;20518;-79
2022/06/21 06:58:01;;;;;;;8.10;4.95;;;19.30;99.90;;;;;;5028347;28;20058;-80
2022/06/21 07:00:41;;;;;;;7.35;2.38;;;19.30;99.90;;;;;;5039599;28;20044;-80
2022/06/21 07:03:13;;;;;;;8.02;3.17;;;19.50;99.90;;;;;;5044260;28;20048;-80
2022/06/21 07:05:53;;;;;;;7.07;2.15;;;19.50;99.90;;;;;;5075307;28;20479;-80
2022/06/21 07:08:30;;;;;;;6.95;2.30;;;19.70;99.90;;;;;;5075100;28;20055;-80
2022/06/21 07:11:13;;;;;;;9.35;2.92;;;19.40;99.90;;;;;;5042453;28;20121;-80
2022/06/21 07:14:06;;;;;;;6.20;1.90;;;19.40;99.90;;;;;;5048249;28;20044;-80
2022/06/21 07:16:43;;;;;;;5.45;2.13;;;19.10;99.90;;;;;;5058310;28;20036;-80
2022/06/21 07:19:16;;;;;;;8.10;2.67;;;18.80;99.90;;;;;;5019841;28;20062;-80
2022/06/21 07:21:44;;;;;;;10.55;3.25;;;18.70;99.90;;;;;;5056737;28;20071;-80
2022/06/21 07:24:18;;;;;;;7.20;3.10;;;19.10;99.90;;;;;;5049225;28;20048;-79
2022/06/21 07:26:47;;;;;;;5.63;2.80;;;19.10;99.90;;;;;;5046368;28;20823;-80
2022/06/21 07:29:22;;;;;;;5.47;2.10;;;19.40;99.90;;;;;;5044654;28;20134;-81
2022/06/21 07:31:58;;;;;;;13.48;10.02;;;19.70;99.90;;;;;;5037898;28;20580;-80
2022/06/21 07:34:37;;;;;;;18.98;14.65;;;20.10;99.90;;;;;;5050464;28;20055;-81
2022/06/21 07:37:27;;;;;;;12.23;3.67;;;20.20;99.90;;;;;;5063599;28;20608;-80
2022/06/21 07:39:57;;;;;;;15.02;12.65;;;20.10;99.90;;;;;;5070456;28;20032;-80
2022/06/21 07:42:54;;;;;;;8.15;3.72;;;20.70;99.90;;;;;;5054942;28;20127;-80
2022/06/21 07:45:26;;;;;;;7.55;3.50;;;20.60;99.90;;;;;;5097588;27;20126;-81
2022/06/21 07:48:27;;;;;;;7.57;4.70;;;20.80;99.90;;;;;;5061501;28;20610;-79
2022/06/21 07:51:08;;;;;;;5.18;2.42;;;21.00;99.90;;;;;;5050177;28;20048;-79
2022/06/21 07:53:58;;;;;;;5.53;3.05;;;20.60;99.90;;;;;;5069897;28;20083;-80
2022/06/21 07:56:33;;;;;;;11.48;7.72;;;20.90;99.90;;;;;;5075728;28;20039;-80
2022/06/21 07:59:24;;;;;;;6.75;3.10;;;20.90;99.90;;;;;;5047947;28;20044;-80
2022/06/21 08:07:39;;;;;;;10.05;2.17;;;21.10;99.90;;;;;;5063000;28;20047;-80
2022/06/21 08:10:19;;;;;;;7.25;3.88;;;21.40;99.90;;;;;;5052971;28;20097;-80
2022/06/21 08:12:46;;;;;;;7.30;2.60;;;21.70;99.90;;;;;;5055430;28;20047;-82
2022/06/21 08:15:13;;;;;;;9.32;6.47;;;21.90;99.90;;;;;;5047487;28;20791;-80
2022/06/21 08:17:42;;;;;;;7.82;4.95;;;21.90;99.90;;;;;;5050215;28;20039;-80
2022/06/21 08:20:23;;;;;;;3.33;2.10;;;22.00;99.90;;;;;;5054080;28;20075;-82
2022/06/21 08:23:03;;;;;;;8.30;4.03;;;22.00;99.90;;;;;;5057248;28;20058;-79
2022/06/21 08:25:45;;;;;;;8.35;4.95;;;21.90;99.90;;;;;;5065418;28;20052;-81
2022/06/21 08:28:19;;;;;;;7.60;3.58;;;21.50;99.90;;;;;;5076366;28;20498;-81
2022/06/21 08:30:48;;;;;;;5.38;1.85;;;22.00;99.90;;;;;;5041245;28;20050;-80
2022/06/21 08:33:23;;;;;;;7.97;3.28;;;22.60;99.90;;;;;;5067845;28;20040;-81
2022/06/21 08:36:12;;;;;;;5.60;2.17;;;22.30;99.90;;;;;;5056531;28;20084;-81
2022/06/21 08:39:00;;;;;;;6.13;2.25;;;22.40;99.90;;;;;;5029625;28;20037;-81
2022/06/21 08:48:30;;;;;;;5.20;1.92;;;21.90;99.00;;;;;;5076005;28;20503;-83
2022/06/21 08:51:03;;;;;;;4.70;1.90;;;22.00;95.10;;;;;;5036759;28;20126;-82
2022/06/21 08:54:06;;;;;;;3.90;1.40;;;22.40;99.90;;;;;;5048101;28;20123;-81
2022/06/21 08:56:55;;;;;;;4.38;1.73;;;22.50;92.60;;;;;;5059280;28;20047;-82
2022/06/21 08:59:33;;;;;;;6.30;2.20;;;22.90;97.00;;;;;;5058281;28;20492;-82
2022/06/21 09:02:42;;;;;;;5.25;2.00;;;22.90;96.60;;;;;;5071430;28;20083;-82
2022/06/21 09:05:41;;;;;;;6.13;1.50;;;23.40;92.60;;;;;;5055143;28;20040;-82
2022/06/21 09:08:07;;;;;;;4.45;1.65;;;23.50;85.40;;;;;;5025819;28;20044;-82
2022/06/21 09:10:59;;;;;;;4.75;1.45;;;23.80;88.30;;;;;;5043517;28;20330;-83
2022/06/21 09:13:44;;;;;;;3.30;1.55;;;23.90;76.40;;;;;;5048143;28;20489;-82
2022/06/21 09:16:21;;;;;;;5.80;2.03;;;24.00;79.60;;;;;;5055746;28;20063;-83
2022/06/21 09:18:55;;;;;;;4.85;1.40;;;24.10;73.20;;;;;;5062095;28;20060;-83
2022/06/21 09:21:37;;;;;;;3.60;1.23;;;23.90;71.90;;;;;;5060363;28;20079;-82
2022/06/21 09:24:27;;;;;;;3.53;1.30;;;24.20;67.00;;;;;;5059867;28;20052;-83
2022/06/21 09:27:09;;;;;;;4.35;1.50;;;24.50;65.50;;;;;;5062962;28;20050;-84
2022/06/21 09:30:05;;;;;;;5.93;1.58;;;24.40;63.00;;;;;;5031767;28;20040;-83
2022/06/21 09:32:54;;;;;;;12.55;10.68;;;24.50;63.60;;;;;;5068132;28;20522;-81
2022/06/21 09:35:39;;;;;;;7.68;5.03;;;24.20;61.90;;;;;;5055224;28;20083;-83
2022/06/21 09:41:29;;;;;;;5.68;2.70;;;24.00;62.80;;;;;;5058418;28;20049;-80
2022/06/21 09:44:08;;;;;;;;;;;24.60;59.70;;;;;;5059567;28;20563;-82
2022/06/21 09:46:47;;;;;;;15.30;13.73;;;24.00;56.00;;;;;;5071927;28;19924;-83
2022/06/21 09:49:33;;;;;;;4.43;1.63;;;23.80;63.10;;;;;;5076888;28;20102;-82
2022/06/21 09:52:25;;;;;;;6.70;3.63;;;24.30;60.80;;;;;;5062217;28;20045;-80
2022/06/21 09:55:14;;;;;;;5.82;2.20;;;24.90;59.10;;;;;;5060285;28;20055;-79
2022/06/21 09:58:21;;;;;;;5.22;1.30;;;25.10;59.90;;;;;;5061694;28;20044;-78
2022/06/21 10:01:08;;;;;;;3.90;1.30;;;25.20;59.80;;;;;;5063753;28;20055;-80
2022/06/21 10:03:55;;;;;;;4.88;1.38;;;25.20;60.20;;;;;;5042876;28;20052;-79
2022/06/21 10:06:46;;;;;;;5.95;1.63;;;24.60;56.00;;;;;;5066637;28;20043;-79
2022/06/21 10:09:30;;;;;;;;;;;25.00;56.70;;;;;;5067567;28;20105;-79
2022/06/21 10:12:05;;;;;;;3.95;1.38;;;24.70;59.00;;;;;;5075278;28;19924;-80
2022/06/21 10:15:00;;;;;;;3.47;1.10;;;25.10;54.20;;;;;;5068039;28;20040;-80
2022/06/21 10:18:00;;;;;;;3.08;1.38;;;25.30;54.60;;;;;;5085585;28;20050;-80
2022/06/21 10:20:57;;;;;;;4.25;1.20;;;25.90;52.60;;;;;;5075899;28;20102;-80
2022/06/21 10:23:52;;;;;;;7.22;1.65;;;25.60;52.10;;;;;;5052794;28;20044;-79
2022/06/21 10:26:47;;;;;;;5.72;1.48;;;25.90;53.10;;;;;;5077841;28;20052;-80
2022/06/21 10:30:01;;;;;;;3.70;1.52;;;25.80;49.90;;;;;;5075911;28;20047;-78
2022/06/21 10:32:44;;;;;;;6.38;4.10;;;25.70;51.60;;;;;;5060891;28;20496;-79
2022/06/21 10:35:20;;;;;;;5.45;1.52;;;26.00;50.80;;;;;;5070199;28;20048;-79
2022/06/21 10:38:16;;;;;;;11.73;10.50;;;26.20;52.50;;;;;;5061883;28;20044;-79
2022/06/21 10:40:50;;;;;;;5.43;2.05;;;26.00;51.50;;;;;;5067213;28;20097;-79
2022/06/21 10:43:46;;;;;;;7.40;3.50;;;26.20;50.60;;;;;;5082675;28;20055;-79
2022/06/21 10:46:29;;;;;;;4.93;2.33;;;26.80;48.80;;;;;;5095339;28;20480;-79
2022/06/21 10:49:16;;;;;;;7.88;4.07;;;27.20;49.50;;;;;;5067351;28;20571;-78
2022/06/21 10:52:01;;;;;;;6.25;1.88;;;27.30;48.00;;;;;;5083823;28;20512;-81
2022/06/21 10:54:46;;;;;;;4.07;2.15;;;27.50;44.20;;;;;;5067801;28;20047;-79
2022/06/21 10:57:40;;;;;;;4.68;1.58;;;27.60;44.80;;;;;;5065644;28;20047;-78
2022/06/21 11:03:09;;;;;;;3.95;1.40;;;27.30;47.40;;;;;;5085341;28;20047;-79
2022/06/21 11:06:13;;;;;;;3.72;2.00;;;27.50;46.00;;;;;;5103998;27;20719;-79
2022/06/21 11:08:58;;;;;;;4.90;1.58;;;28.10;42.90;;;;;;5099807;27;20440;-79
2022/06/21 11:12:52;;;;;;;4.35;1.30;;;27.30;44.60;;;;;;5065813;28;20046;-80
2022/06/21 11:14:58;;;;;;;3.55;1.42;;;26.80;44.20;;;;;;5060401;28;20044;-79
2022/06/21 11:17:39;;;;;;;3.35;1.20;;;26.40;43.70;;;;;;5082604;28;20043;-79
2022/06/21 11:20:26;;;;;;;4.78;1.17;;;26.50;43.40;;;;;;5069801;28;20534;-79
2022/06/21 11:23:09;;;;;;;4.65;1.70;;;26.80;44.80;;;;;;5039844;28;20043;-79
2022/06/21 11:25:47;;;;;;;5.05;1.63;;;27.00;44.40;;;;;;5058992;28;20543;-79
2022/06/21 11:28:44;;;;;;;3.15;1.20;;;27.20;45.20;;;;;;5102053;27;20145;-79
2022/06/21 11:31:44;;;;;;;5.65;1.30;;;27.30;44.10;;;;;;5055340;28;20135;-80
2022/06/21 11:34:52;;;;;;;6.60;1.60;;;27.30;44.30;;;;;;5067737;28;20552;-80
2022/06/21 11:37:42;;;;;;;4.57;1.50;;;27.20;45.00;;;;;;5048628;28;20094;-80
2022/06/21 11:40:33;;;;;;;4.20;1.50;;;27.10;45.30;;;;;;5060725;28;20051;-79
2022/06/21 11:43:09;;;;;;;5.15;1.48;;;27.10;44.40;;;;;;5068073;28;20459;-80
2022/06/21 11:45:41;;;;;;;4.28;1.55;;;26.90;46.20;;;;;;5056411;28;20158;-80
2022/06/21 11:48:21;;;;;;;4.07;1.33;;;26.90;44.00;;;;;;5074462;28;20085;-79
2022/06/21 11:51:14;;;;;;;1.83;0.90;;;27.20;44.00;;;;;;5054242;28;20052;-80
2022/06/21 11:54:01;;;;;;;3.95;1.40;;;27.50;44.80;;;;;;5080536;28;20071;-80
2022/06/21 11:56:42;;;;;;;3.53;1.50;;;27.70;44.30;;;;;;5075912;28;20154;-80
2022/06/21 11:59:26;;;;;;;4.70;1.55;;;27.60;43.30;;;;;;5078238;28;20043;-79
2022/06/21 12:02:15;;;;;;;4.32;1.23;;;27.60;43.30;;;;;;5059986;28;20047;-79
2022/06/21 12:04:59;;;;;;;4.45;1.48;;;28.00;43.30;;;;;;5028544;28;20082;-83
2022/06/21 12:08:04;;;;;;;4.10;1.73;;;28.20;42.50;;;;;;5049625;28;20527;-80
2022/06/21 12:11:00;;;;;;;6.80;3.08;;;28.10;42.10;;;;;;5057161;28;20133;-80
2022/06/21 12:14:05;;;;;;;6.13;3.35;;;28.20;41.40;;;;;;5064982;28;20036;-80
2022/06/21 12:16:39;;;;;;;6.57;1.45;;;28.90;42.00;;;;;;5055963;28;20504;-79
2022/06/21 12:19:11;;;;;;;4.03;1.50;;;29.20;42.30;;;;;;5078825;28;20135;-80
2022/06/21 12:21:46;;;;;;;3.83;1.50;;;28.80;42.60;;;;;;5069404;28;20051;-79
2022/06/21 12:24:20;;;;;;;13.13;1.85;;;29.10;42.60;;;;;;5089202;27;20036;-80
2022/06/21 12:26:47;;;;;;;3.80;1.90;;;29.20;42.80;;;;;;5045244;28;20043;-79
2022/06/21 12:29:17;;;;;;;5.15;1.98;;;27.80;42.80;;;;;;5040895;28;20043;-80
2022/06/21 12:31:54;;;;;;;6.90;2.38;;;28.30;44.70;;;;;;5041316;28;20768;-80
2022/06/21 12:34:40;;;;;;;6.95;3.83;;;28.70;44.20;;;;;;5065226;28;20570;-79
2022/06/21 12:37:20;;;;;;;7.43;3.65;;;28.60;43.10;;;;;;5072817;28;20063;-80
2022/06/21 12:40:09;;;;;;;4.85;1.70;;;28.10;43.70;;;;;;5044995;28;21565;-80
2022/06/21 12:43:04;;;;;;;7.15;1.70;;;28.20;42.90;;;;;;5059557;28;21637;-80
2022/06/21 12:45:52;;;;;;;3.65;1.13;;;28.30;42.60;;;;;;5077750;28;20040;-80
2022/06/21 12:48:27;;;;;;;3.38;1.85;;;28.60;42.60;;;;;;5033184;28;20057;-81
2022/06/21 12:51:20;;;;;;;4.63;1.50;;;29.00;42.90;;;;;;5061324;28;20059;-81
2022/06/21 12:53:54;;;;;;;6.00;2.42;;;29.20;40.80;;;;;;5057463;28;20048;-79
2022/06/21 12:56:50;;;;;;;5.80;4.43;;;28.70;40.60;;;;;;5023925;28;20040;-79
2022/06/21 12:59:41;;;;;;;6.38;4.07;;;28.70;41.70;;;;;;5071862;28;20044;-78
2022/06/21 13:02:35;;;;;;;5.07;3.00;;;28.30;42.80;;;;;;5045550;28;20048;-79
2022/06/21 13:05:22;;;;;;;5.82;2.25;;;27.60;43.10;;;;;;5078108;28;20043;-79
2022/06/21 13:08:07;;;;;;;5.35;3.40;;;27.60;43.70;;;;;;5054887;28;20040;-78
2022/06/21 13:10:44;;;;;;;6.20;2.20;;;27.80;43.30;;;;;;5061669;28;20168;-78
2022/06/21 13:13:40;;;;;;;2.95;1.27;;;27.60;43.10;;;;;;5025752;28;20040;-78
2022/06/21 13:16:15;;;;;;;6.90;1.67;;;27.40;43.20;;;;;;5053265;28;20520;-79
2022/06/21 13:18:59;;;;;;;4.00;1.20;;;27.70;43.90;;;;;;5072323;28;20058;-78
2022/06/21 13:22:02;;;;;;;4.30;1.52;;;27.90;44.70;;;;;;5054161;28;20146;-79
2022/06/21 13:24:47;;;;;;;4.80;1.45;;;27.90;42.40;;;;;;5044057;28;20614;-78
2022/06/21 13:27:16;;;;;;;4.97;1.45;;;27.50;43.80;;;;;;5048959;28;20048;-79
2022/06/21 13:30:00;;;;;;;4.70;1.30;;;27.50;44.30;;;;;;5069711;28;20047;-79
2022/06/21 13:32:40;;;;;;;7.72;1.65;;;27.00;44.70;;;;;;5040954;28;20064;-78
2022/06/21 13:35:32;;;;;;;48.10;43.40;;;26.90;45.30;;;;;;5071106;28;20048;-78
2022/06/21 13:38:07;;;;;;;4.38;1.67;;;26.90;44.30;;;;;;5068274;28;20048;-78
2022/06/21 13:40:49;;;;;;;5.00;3.05;;;26.90;45.40;;;;;;5043780;28;20325;-79
2022/06/21 13:43:29;;;;;;;5.68;1.30;;;27.30;44.60;;;;;;5047374;28;20048;-76
2022/06/21 13:46:14;;;;;;;5.93;1.83;;;27.30;45.20;;;;;;5057125;28;20140;-79
2022/06/21 13:49:01;;;;;;;7.57;4.22;;;27.80;43.70;;;;;;5058697;28;20040;-79
2022/06/21 13:51:53;;;;;;;5.32;1.95;;;27.90;43.10;;;;;;5038371;28;20703;-79
2022/06/21 13:54:36;;;;;;;4.38;1.40;;;28.00;43.60;;;;;;5056117;28;20046;-79
2022/06/21 13:57:34;;;;;;;4.43;1.80;;;27.80;45.10;;;;;;5062534;28;20142;-79
2022/06/21 14:00:05;;;;;;;4.13;1.60;;;27.70;44.20;;;;;;5052445;28;20105;-79
2022/06/21 14:03:20;;;;;;;5.72;1.77;;;27.90;44.00;;;;;;5044468;28;20051;-79
2022/06/21 14:06:01;;;;;;;5.50;1.38;;;28.10;42.70;;;;;;5056579;28;20058;-79
2022/06/21 14:08:37;;;;;;;4.38;1.40;;;27.70;43.30;;;;;;5047766;28;20044;-79
2022/06/21 14:11:41;;;;;;;2.88;1.40;;;28.00;43.30;;;;;;5046002;28;20071;-79
2022/06/21 14:14:17;;;;;;;7.50;1.35;;;28.10;43.50;;;;;;5057949;28;20568;-79
2022/06/21 14:16:52;;;;;;;3.70;1.17;;;28.10;43.10;;;;;;5024086;28;20098;-79
2022/06/21 14:19:27;;;;;;;5.45;1.60;;;28.20;43.40;;;;;;5058175;28;20128;-79